sensor_id;sensor_type;location;lat;lon;timestamp;pressure;altitude;pressure_sealevel;temperature
7882;BMP180;3986;41.884;23.466;2022-11-20T00:01:12;91609.00;;;15.00
7882;BMP180;3986;41.884;23.466;2022-11-20T00:03:39;91608.00;;;14.90
7882;BMP180;3986;41.884;23.466;2022-11-20T00:06:08;91587.00;;;15.10
7882;BMP180;3986;41.884;23.466;2022-11-20T00:08:35;91607.00;;;15.00
7882;BMP180;3986;41.884;23.466;2022-11-20T00:11:03;91602.00;;;14.90
7882;BMP180;3986;41.884;23.466;2022-11-20T00:13:31;91588.00;;;14.90
7882;BMP180;3986;41.884;23.466;2022-11-20T00:15:58;91598.00;;;15.10
7882;BMP180;3986;41.884;23.466;2022-11-20T00:18:26;91586.00;;;15.20
7882;BMP180;3986;41.884;23.466;2022-11-20T00:20:59;91591.00;;;15.30
7882;BMP180;3986;41.884;23.466;2022-11-20T00:23:26;91591.00;;;15.10
7882;BMP180;3986;41.884;23.466;2022-11-20T00:25:53;91574.00;;;15.10
7882;BMP180;3986;41.884;23.466;2022-11-20T00:28:19;91577.00;;;15.20
7882;BMP180;3986;41.884;23.466;2022-11-20T00:30:46;91575.00;;;15.10
7882;BMP180;3986;41.884;23.466;2022-11-20T00:33:13;91565.00;;;15.10
7882;BMP180;3986;41.884;23.466;2022-11-20T00:35:41;91579.00;;;15.20
7882;BMP180;3986;41.884;23.466;2022-11-20T00:38:08;91581.00;;;15.20
7882;BMP180;3986;41.884;23.466;2022-11-20T00:40:34;91581.00;;;15.30
7882;BMP180;3986;41.884;23.466;2022-11-20T00:43:01;91564.00;;;15.00
7882;BMP180;3986;41.884;23.466;2022-11-20T00:45:28;91557.00;;;14.90
7882;BMP180;3986;41.884;23.466;2022-11-20T00:47:55;91561.00;;;15.00
7882;BMP180;3986;41.884;23.466;2022-11-20T00:50:21;91548.00;;;15.10
7882;BMP180;3986;41.884;23.466;2022-11-20T00:52:49;91561.00;;;15.30
7882;BMP180;3986;41.884;23.466;2022-11-20T00:55:16;91565.00;;;15.30
7882;BMP180;3986;41.884;23.466;2022-11-20T00:57:43;91565.00;;;15.20
7882;BMP180;3986;41.884;23.466;2022-11-20T01:00:10;91560.00;;;15.10
7882;BMP180;3986;41.884;23.466;2022-11-20T01:02:37;91567.00;;;14.80
7882;BMP180;3986;41.884;23.466;2022-11-20T01:05:04;91535.00;;;15.00
7882;BMP180;3986;41.884;23.466;2022-11-20T01:07:32;91553.00;;;15.10
7882;BMP180;3986;41.884;23.466;2022-11-20T01:10:00;91545.00;;;15.10
7882;BMP180;3986;41.884;23.466;2022-11-20T01:12:27;91544.00;;;15.20
7882;BMP180;3986;41.884;23.466;2022-11-20T01:14:53;91558.00;;;15.10
7882;BMP180;3986;41.884;23.466;2022-11-20T01:17:20;91551.00;;;15.10
7882;BMP180;3986;41.884;23.466;2022-11-20T01:19:48;91547.00;;;15.20
7882;BMP180;3986;41.884;23.466;2022-11-20T01:22:15;91542.00;;;15.30
7882;BMP180;3986;41.884;23.466;2022-11-20T01:24:42;91537.00;;;15.20
7882;BMP180;3986;41.884;23.466;2022-11-20T01:27:10;91528.00;;;15.00
7882;BMP180;3986;41.884;23.466;2022-11-20T01:29:37;91520.00;;;15.10
7882;BMP180;3986;41.884;23.466;2022-11-20T01:32:04;91521.00;;;15.20
7882;BMP180;3986;41.884;23.466;2022-11-20T01:34:31;91530.00;;;15.10
7882;BMP180;3986;41.884;23.466;2022-11-20T01:36:57;91520.00;;;15.20
7882;BMP180;3986;41.884;23.466;2022-11-20T01:39:25;91517.00;;;15.10
7882;BMP180;3986;41.884;23.466;2022-11-20T01:41:54;91501.00;;;15.10
7882;BMP180;3986;41.884;23.466;2022-11-20T01:44:49;91526.00;;;15.10
7882;BMP180;3986;41.884;23.466;2022-11-20T01:47:20;91507.00;;;15.20
7882;BMP180;3986;41.884;23.466;2022-11-20T01:49:50;91490.00;;;15.00
7882;BMP180;3986;41.884;23.466;2022-11-20T01:52:20;91506.00;;;15.10
7882;BMP180;3986;41.884;23.466;2022-11-20T01:54:52;91508.00;;;15.10
7882;BMP180;3986;41.884;23.466;2022-11-20T01:57:20;91508.00;;;14.90
7882;BMP180;3986;41.884;23.466;2022-11-20T01:59:54;91502.00;;;15.00
7882;BMP180;3986;41.884;23.466;2022-11-20T02:02:23;91498.00;;;14.90
7882;BMP180;3986;41.884;23.466;2022-11-20T02:04:51;91488.00;;;15.00
7882;BMP180;3986;41.884;23.466;2022-11-20T02:07:20;91470.00;;;15.10
7882;BMP180;3986;41.884;23.466;2022-11-20T02:09:47;91455.00;;;15.00
7882;BMP180;3986;41.884;23.466;2022-11-20T02:12:14;91472.00;;;15.00
7882;BMP180;3986;41.884;23.466;2022-11-20T02:14:56;91478.00;;;15.10
7882;BMP180;3986;41.884;23.466;2022-11-20T02:17:23;91481.00;;;15.00
7882;BMP180;3986;41.884;23.466;2022-11-20T02:19:51;91474.00;;;15.00
7882;BMP180;3986;41.884;23.466;2022-11-20T02:22:21;91467.00;;;14.80
7882;BMP180;3986;41.884;23.466;2022-11-20T02:24:51;91472.00;;;14.90
7882;BMP180;3986;41.884;23.466;2022-11-20T02:27:18;91485.00;;;15.00
7882;BMP180;3986;41.884;23.466;2022-11-20T02:29:48;91472.00;;;14.90
7882;BMP180;3986;41.884;23.466;2022-11-20T02:32:20;91466.00;;;14.70
7882;BMP180;3986;41.884;23.466;2022-11-20T02:34:47;91470.00;;;14.90
7882;BMP180;3986;41.884;23.466;2022-11-20T02:37:14;91467.00;;;14.90
7882;BMP180;3986;41.884;23.466;2022-11-20T02:39:41;91453.00;;;14.90
7882;BMP180;3986;41.884;23.466;2022-11-20T02:42:09;91344.00;;;15.00
7882;BMP180;3986;41.884;23.466;2022-11-20T02:44:36;91447.00;;;15.00
7882;BMP180;3986;41.884;23.466;2022-11-20T02:47:03;91442.00;;;15.10
7882;BMP180;3986;41.884;23.466;2022-11-20T02:49:30;91459.00;;;15.00
7882;BMP180;3986;41.884;23.466;2022-11-20T02:51:57;91453.00;;;15.00
7882;BMP180;3986;41.884;23.466;2022-11-20T02:54:24;91452.00;;;14.90
7882;BMP180;3986;41.884;23.466;2022-11-20T02:56:50;91461.00;;;14.90
7882;BMP180;3986;41.884;23.466;2022-11-20T02:59:19;91468.00;;;15.00
7882;BMP180;3986;41.884;23.466;2022-11-20T03:01:45;91470.00;;;15.00
7882;BMP180;3986;41.884;23.466;2022-11-20T03:04:12;91458.00;;;15.00
7882;BMP180;3986;41.884;23.466;2022-11-20T03:06:39;91463.00;;;14.80
7882;BMP180;3986;41.884;23.466;2022-11-20T03:09:06;91463.00;;;14.80
7882;BMP180;3986;41.884;23.466;2022-11-20T03:11:33;91458.00;;;14.90
7882;BMP180;3986;41.884;23.466;2022-11-20T03:14:01;91449.00;;;14.80
7882;BMP180;3986;41.884;23.466;2022-11-20T03:16:31;91447.00;;;14.40
7882;BMP180;3986;41.884;23.466;2022-11-20T03:18:58;91422.00;;;14.80
7882;BMP180;3986;41.884;23.466;2022-11-20T03:21:25;91466.00;;;14.70
7882;BMP180;3986;41.884;23.466;2022-11-20T03:23:53;91466.00;;;14.70
7882;BMP180;3986;41.884;23.466;2022-11-20T03:26:21;91447.00;;;14.80
7882;BMP180;3986;41.884;23.466;2022-11-20T03:28:50;91452.00;;;14.70
7882;BMP180;3986;41.884;23.466;2022-11-20T03:31:20;91427.00;;;14.70
7882;BMP180;3986;41.884;23.466;2022-11-20T03:33:48;91487.00;;;14.70
7882;BMP180;3986;41.884;23.466;2022-11-20T03:36:17;91498.00;;;14.70
7882;BMP180;3986;41.884;23.466;2022-11-20T03:38:44;91493.00;;;14.70
7882;BMP180;3986;41.884;23.466;2022-11-20T03:41:12;91480.00;;;14.70
7882;BMP180;3986;41.884;23.466;2022-11-20T03:43:39;91478.00;;;14.70
7882;BMP180;3986;41.884;23.466;2022-11-20T03:46:07;91485.00;;;14.40
7882;BMP180;3986;41.884;23.466;2022-11-20T03:48:34;91479.00;;;14.60
7882;BMP180;3986;41.884;23.466;2022-11-20T03:51:09;91479.00;;;14.60
7882;BMP180;3986;41.884;23.466;2022-11-20T03:53:36;91473.00;;;14.60
7882;BMP180;3986;41.884;23.466;2022-11-20T03:56:03;91432.00;;;14.50
7882;BMP180;3986;41.884;23.466;2022-11-20T03:58:30;91461.00;;;14.50
7882;BMP180;3986;41.884;23.466;2022-11-20T04:00:57;91464.00;;;14.30
7882;BMP180;3986;41.884;23.466;2022-11-20T04:03:23;91463.00;;;14.40
7882;BMP180;3986;41.884;23.466;2022-11-20T04:05:50;91474.00;;;14.20
7882;BMP180;3986;41.884;23.466;2022-11-20T04:08:18;91469.00;;;14.30
7882;BMP180;3986;41.884;23.466;2022-11-20T04:10:45;91476.00;;;14.30
7882;BMP180;3986;41.884;23.466;2022-11-20T04:13:12;91482.00;;;14.20
7882;BMP180;3986;41.884;23.466;2022-11-20T04:15:38;91470.00;;;14.20
7882;BMP180;3986;41.884;23.466;2022-11-20T04:18:05;91450.00;;;14.30
7882;BMP180;3986;41.884;23.466;2022-11-20T04:20:32;91450.00;;;14.20
7882;BMP180;3986;41.884;23.466;2022-11-20T04:22:59;91453.00;;;14.20
7882;BMP180;3986;41.884;23.466;2022-11-20T04:25:27;91474.00;;;14.10
7882;BMP180;3986;41.884;23.466;2022-11-20T04:27:54;91491.00;;;14.20
7882;BMP180;3986;41.884;23.466;2022-11-20T04:30:21;91481.00;;;14.20
7882;BMP180;3986;41.884;23.466;2022-11-20T04:32:48;91485.00;;;14.20
7882;BMP180;3986;41.884;23.466;2022-11-20T04:35:15;91481.00;;;14.40
7882;BMP180;3986;41.884;23.466;2022-11-20T04:37:41;91478.00;;;14.40
7882;BMP180;3986;41.884;23.466;2022-11-20T04:40:09;91468.00;;;14.40
7882;BMP180;3986;41.884;23.466;2022-11-20T04:42:37;91476.00;;;14.40
7882;BMP180;3986;41.884;23.466;2022-11-20T04:45:05;91485.00;;;14.30
7882;BMP180;3986;41.884;23.466;2022-11-20T04:47:32;91481.00;;;14.20
7882;BMP180;3986;41.884;23.466;2022-11-20T04:49:58;91476.00;;;14.30
7882;BMP180;3986;41.884;23.466;2022-11-20T04:52:25;91480.00;;;14.20
7882;BMP180;3986;41.884;23.466;2022-11-20T04:54:52;91482.00;;;14.10
7882;BMP180;3986;41.884;23.466;2022-11-20T04:57:19;91486.00;;;14.20
7882;BMP180;3986;41.884;23.466;2022-11-20T04:59:47;91472.00;;;14.20
7882;BMP180;3986;41.884;23.466;2022-11-20T05:02:14;91465.00;;;14.10
7882;BMP180;3986;41.884;23.466;2022-11-20T05:04:41;91472.00;;;14.20
7882;BMP180;3986;41.884;23.466;2022-11-20T05:07:07;91469.00;;;14.00
7882;BMP180;3986;41.884;23.466;2022-11-20T05:09:34;91473.00;;;14.10
7882;BMP180;3986;41.884;23.466;2022-11-20T05:12:01;91466.00;;;14.10
7882;BMP180;3986;41.884;23.466;2022-11-20T05:14:28;91458.00;;;14.20
7882;BMP180;3986;41.884;23.466;2022-11-20T05:16:56;91447.00;;;14.00
7882;BMP180;3986;41.884;23.466;2022-11-20T05:19:23;91459.00;;;13.90
7882;BMP180;3986;41.884;23.466;2022-11-20T05:21:49;91467.00;;;13.80
7882;BMP180;3986;41.884;23.466;2022-11-20T05:24:16;91476.00;;;13.90
7882;BMP180;3986;41.884;23.466;2022-11-20T05:26:44;91497.00;;;14.10
7882;BMP180;3986;41.884;23.466;2022-11-20T05:29:11;91499.00;;;14.00
7882;BMP180;3986;41.884;23.466;2022-11-20T05:31:39;91505.00;;;14.10
7882;BMP180;3986;41.884;23.466;2022-11-20T05:34:07;91503.00;;;14.20
7882;BMP180;3986;41.884;23.466;2022-11-20T05:36:34;91508.00;;;14.30
7882;BMP180;3986;41.884;23.466;2022-11-20T05:39:01;91501.00;;;14.30
7882;BMP180;3986;41.884;23.466;2022-11-20T05:41:28;91497.00;;;14.30
7882;BMP180;3986;41.884;23.466;2022-11-20T05:43:55;91499.00;;;14.50
7882;BMP180;3986;41.884;23.466;2022-11-20T05:46:22;91502.00;;;14.40
7882;BMP180;3986;41.884;23.466;2022-11-20T05:48:49;91494.00;;;14.30
7882;BMP180;3986;41.884;23.466;2022-11-20T05:51:18;91489.00;;;14.30
7882;BMP180;3986;41.884;23.466;2022-11-20T05:53:45;91516.00;;;14.30
7882;BMP180;3986;41.884;23.466;2022-11-20T05:56:13;91547.00;;;14.60
7882;BMP180;3986;41.884;23.466;2022-11-20T05:58:41;91534.00;;;14.60
7882;BMP180;3986;41.884;23.466;2022-11-20T06:01:10;91537.00;;;14.30
7882;BMP180;3986;41.884;23.466;2022-11-20T06:03:37;91544.00;;;14.40
7882;BMP180;3986;41.884;23.466;2022-11-20T06:06:05;91564.00;;;14.50
7882;BMP180;3986;41.884;23.466;2022-11-20T06:08:34;91538.00;;;14.60
7882;BMP180;3986;41.884;23.466;2022-11-20T06:11:03;91538.00;;;14.70
7882;BMP180;3986;41.884;23.466;2022-11-20T06:13:31;91518.00;;;14.50
7882;BMP180;3986;41.884;23.466;2022-11-20T06:15:58;91520.00;;;14.20
7882;BMP180;3986;41.884;23.466;2022-11-20T06:18:26;91534.00;;;14.40
7882;BMP180;3986;41.884;23.466;2022-11-20T06:20:59;91536.00;;;14.80
7882;BMP180;3986;41.884;23.466;2022-11-20T06:23:28;91496.00;;;14.90
7882;BMP180;3986;41.884;23.466;2022-11-20T06:25:57;91520.00;;;14.80
7882;BMP180;3986;41.884;23.466;2022-11-20T06:28:23;91530.00;;;14.40
7882;BMP180;3986;41.884;23.466;2022-11-20T06:30:50;91532.00;;;14.70
7882;BMP180;3986;41.884;23.466;2022-11-20T06:33:17;91531.00;;;14.50
7882;BMP180;3986;41.884;23.466;2022-11-20T06:35:44;91519.00;;;14.60
7882;BMP180;3986;41.884;23.466;2022-11-20T06:38:11;91523.00;;;14.70
7882;BMP180;3986;41.884;23.466;2022-11-20T06:40:40;91555.00;;;14.70
7882;BMP180;3986;41.884;23.466;2022-11-20T06:43:09;91542.00;;;14.90
7882;BMP180;3986;41.884;23.466;2022-11-20T06:45:36;91522.00;;;15.00
7882;BMP180;3986;41.884;23.466;2022-11-20T06:48:03;91522.00;;;14.60
7882;BMP180;3986;41.884;23.466;2022-11-20T06:50:30;91543.00;;;14.80
7882;BMP180;3986;41.884;23.466;2022-11-20T06:53:00;91370.00;;;15.10
7882;BMP180;3986;41.884;23.466;2022-11-20T06:55:27;91531.00;;;15.10
7882;BMP180;3986;41.884;23.466;2022-11-20T07:01:59;91544.00;;;15.20
7882;BMP180;3986;41.884;23.466;2022-11-20T07:04:25;91539.00;;;15.10
7882;BMP180;3986;41.884;23.466;2022-11-20T07:06:52;91536.00;;;15.40
7882;BMP180;3986;41.884;23.466;2022-11-20T07:09:19;91535.00;;;15.10
7882;BMP180;3986;41.884;23.466;2022-11-20T07:11:46;91539.00;;;15.00
7882;BMP180;3986;41.884;23.466;2022-11-20T07:14:12;91322.00;;;15.00
7882;BMP180;3986;41.884;23.466;2022-11-20T07:16:39;91551.00;;;15.30
7882;BMP180;3986;41.884;23.466;2022-11-20T07:19:07;91551.00;;;15.60
7882;BMP180;3986;41.884;23.466;2022-11-20T07:21:34;91533.00;;;15.70
7882;BMP180;3986;41.884;23.466;2022-11-20T07:24:01;91543.00;;;15.60
7882;BMP180;3986;41.884;23.466;2022-11-20T07:26:28;91533.00;;;15.70
7882;BMP180;3986;41.884;23.466;2022-11-20T07:28:55;91520.00;;;15.50
7882;BMP180;3986;41.884;23.466;2022-11-20T07:31:22;91514.00;;;15.50
7882;BMP180;3986;41.884;23.466;2022-11-20T07:33:49;91533.00;;;15.60
7882;BMP180;3986;41.884;23.466;2022-11-20T07:36:17;91537.00;;;15.60
7882;BMP180;3986;41.884;23.466;2022-11-20T07:38:43;91538.00;;;15.60
7882;BMP180;3986;41.884;23.466;2022-11-20T07:41:10;91544.00;;;15.30
7882;BMP180;3986;41.884;23.466;2022-11-20T07:43:37;91539.00;;;15.50
7882;BMP180;3986;41.884;23.466;2022-11-20T07:46:04;91558.00;;;15.50
7882;BMP180;3986;41.884;23.466;2022-11-20T07:48:31;91556.00;;;15.60
7882;BMP180;3986;41.884;23.466;2022-11-20T07:50:58;91545.00;;;15.60
7882;BMP180;3986;41.884;23.466;2022-11-20T07:53:26;91539.00;;;15.40
7882;BMP180;3986;41.884;23.466;2022-11-20T07:55:52;91542.00;;;15.60
7882;BMP180;3986;41.884;23.466;2022-11-20T07:58:19;91551.00;;;15.50
7882;BMP180;3986;41.884;23.466;2022-11-20T08:00:46;91467.00;;;15.50
7882;BMP180;3986;41.884;23.466;2022-11-20T08:03:13;91399.00;;;15.50
7882;BMP180;3986;41.884;23.466;2022-11-20T08:05:40;91530.00;;;15.80
7882;BMP180;3986;41.884;23.466;2022-11-20T08:08:07;91542.00;;;15.70
7882;BMP180;3986;41.884;23.466;2022-11-20T08:10:35;91539.00;;;15.10
7882;BMP180;3986;41.884;23.466;2022-11-20T08:13:02;91534.00;;;15.60
7882;BMP180;3986;41.884;23.466;2022-11-20T08:15:48;91541.00;;;15.50
7882;BMP180;3986;41.884;23.466;2022-11-20T08:18:16;91547.00;;;15.20
7882;BMP180;3986;41.884;23.466;2022-11-20T08:20:43;91544.00;;;15.20
7882;BMP180;3986;41.884;23.466;2022-11-20T08:23:11;91510.00;;;15.50
7882;BMP180;3986;41.884;23.466;2022-11-20T08:25:39;91546.00;;;15.60
7882;BMP180;3986;41.884;23.466;2022-11-20T08:28:07;91540.00;;;15.50
7882;BMP180;3986;41.884;23.466;2022-11-20T08:30:35;91535.00;;;15.30
7882;BMP180;3986;41.884;23.466;2022-11-20T08:33:04;91548.00;;;15.40
7882;BMP180;3986;41.884;23.466;2022-11-20T08:35:33;91529.00;;;15.40
7882;BMP180;3986;41.884;23.466;2022-11-20T08:38:00;91531.00;;;15.40
7882;BMP180;3986;41.884;23.466;2022-11-20T08:40:27;91535.00;;;15.30
7882;BMP180;3986;41.884;23.466;2022-11-20T08:42:55;91533.00;;;15.50
7882;BMP180;3986;41.884;23.466;2022-11-20T08:45:21;91534.00;;;15.40
7882;BMP180;3986;41.884;23.466;2022-11-20T08:47:48;91532.00;;;15.20
7882;BMP180;3986;41.884;23.466;2022-11-20T08:50:16;91522.00;;;15.20
7882;BMP180;3986;41.884;23.466;2022-11-20T08:52:43;91522.00;;;15.40
7882;BMP180;3986;41.884;23.466;2022-11-20T08:55:10;91527.00;;;15.50
7882;BMP180;3986;41.884;23.466;2022-11-20T08:57:37;91525.00;;;15.50
7882;BMP180;3986;41.884;23.466;2022-11-20T09:00:07;91537.00;;;15.50
7882;BMP180;3986;41.884;23.466;2022-11-20T09:02:35;91537.00;;;15.60
7882;BMP180;3986;41.884;23.466;2022-11-20T09:05:02;91505.00;;;15.90
7882;BMP180;3986;41.884;23.466;2022-11-20T09:07:29;91548.00;;;15.50
7882;BMP180;3986;41.884;23.466;2022-11-20T09:09:56;91545.00;;;15.60
7882;BMP180;3986;41.884;23.466;2022-11-20T09:12:23;91543.00;;;15.70
7882;BMP180;3986;41.884;23.466;2022-11-20T09:14:49;91548.00;;;15.50
7882;BMP180;3986;41.884;23.466;2022-11-20T09:17:18;91545.00;;;15.70
7882;BMP180;3986;41.884;23.466;2022-11-20T09:19:46;91563.00;;;15.90
7882;BMP180;3986;41.884;23.466;2022-11-20T09:22:12;91550.00;;;15.70
7882;BMP180;3986;41.884;23.466;2022-11-20T09:24:39;91542.00;;;15.90
7882;BMP180;3986;41.884;23.466;2022-11-20T09:27:06;91537.00;;;15.70
7882;BMP180;3986;41.884;23.466;2022-11-20T09:29:32;91535.00;;;15.80
7882;BMP180;3986;41.884;23.466;2022-11-20T09:31:59;91527.00;;;15.80
7882;BMP180;3986;41.884;23.466;2022-11-20T09:34:28;91542.00;;;15.70
7882;BMP180;3986;41.884;23.466;2022-11-20T09:36:54;91534.00;;;15.50
7882;BMP180;3986;41.884;23.466;2022-11-20T09:39:24;91527.00;;;15.40
7882;BMP180;3986;41.884;23.466;2022-11-20T09:42:13;91533.00;;;15.90
7882;BMP180;3986;41.884;23.466;2022-11-20T09:45:01;91524.00;;;15.80
7882;BMP180;3986;41.884;23.466;2022-11-20T09:47:39;91521.00;;;15.60
7882;BMP180;3986;41.884;23.466;2022-11-20T09:50:22;91516.00;;;15.20
7882;BMP180;3986;41.884;23.466;2022-11-20T09:53:03;91500.00;;;15.70
7882;BMP180;3986;41.884;23.466;2022-11-20T09:55:31;91516.00;;;15.80
7882;BMP180;3986;41.884;23.466;2022-11-20T09:57:59;91521.00;;;15.40
7882;BMP180;3986;41.884;23.466;2022-11-20T10:00:27;91520.00;;;15.60
7882;BMP180;3986;41.884;23.466;2022-11-20T10:02:58;91510.00;;;15.40
7882;BMP180;3986;41.884;23.466;2022-11-20T10:05:31;91508.00;;;15.40
7882;BMP180;3986;41.884;23.466;2022-11-20T10:08:07;91520.00;;;15.50
7882;BMP180;3986;41.884;23.466;2022-11-20T10:10:40;91464.00;;;15.80
7882;BMP180;3986;41.884;23.466;2022-11-20T10:13:18;91520.00;;;15.80
7882;BMP180;3986;41.884;23.466;2022-11-20T10:15:54;91522.00;;;15.60
7882;BMP180;3986;41.884;23.466;2022-11-20T17:11:31;91437.00;;;11.40
7882;BMP180;3986;41.884;23.466;2022-11-20T17:13:59;91421.00;;;11.60
7882;BMP180;3986;41.884;23.466;2022-11-20T17:16:27;91439.00;;;12.00
7882;BMP180;3986;41.884;23.466;2022-11-20T17:18:54;91398.00;;;12.30
7882;BMP180;3986;41.884;23.466;2022-11-20T17:21:21;91413.00;;;12.50
7882;BMP180;3986;41.884;23.466;2022-11-20T17:23:48;91424.00;;;12.30
7882;BMP180;3986;41.884;23.466;2022-11-20T17:26:16;91425.00;;;12.30
7882;BMP180;3986;41.884;23.466;2022-11-20T17:28:45;91422.00;;;12.20
7882;BMP180;3986;41.884;23.466;2022-11-20T17:31:14;91391.00;;;12.40
7882;BMP180;3986;41.884;23.466;2022-11-20T17:33:43;91411.00;;;12.70
7882;BMP180;3986;41.884;23.466;2022-11-20T17:36:11;91402.00;;;12.70
7882;BMP180;3986;41.884;23.466;2022-11-20T17:38:38;91406.00;;;12.80
7882;BMP180;3986;41.884;23.466;2022-11-20T17:41:06;91401.00;;;13.00
7882;BMP180;3986;41.884;23.466;2022-11-20T17:43:34;91399.00;;;12.90
7882;BMP180;3986;41.884;23.466;2022-11-20T17:46:04;91395.00;;;12.70
7882;BMP180;3986;41.884;23.466;2022-11-20T17:48:31;91383.00;;;13.00
7882;BMP180;3986;41.884;23.466;2022-11-20T17:50:59;91369.00;;;12.90
7882;BMP180;3986;41.884;23.466;2022-11-20T17:53:26;91369.00;;;12.80
7882;BMP180;3986;41.884;23.466;2022-11-20T17:55:55;91357.00;;;12.90
7882;BMP180;3986;41.884;23.466;2022-11-20T17:58:40;91367.00;;;13.10
7882;BMP180;3986;41.884;23.466;2022-11-20T18:01:09;91377.00;;;12.90
7882;BMP180;3986;41.884;23.466;2022-11-20T18:03:36;91378.00;;;12.90
7882;BMP180;3986;41.884;23.466;2022-11-20T18:06:08;91380.00;;;12.90
7882;BMP180;3986;41.884;23.466;2022-11-20T18:08:35;91373.00;;;13.00
7882;BMP180;3986;41.884;23.466;2022-11-20T18:11:09;91372.00;;;12.90
7882;BMP180;3986;41.884;23.466;2022-11-20T18:13:37;91365.00;;;12.00
7882;BMP180;3986;41.884;23.466;2022-11-20T18:16:23;91361.00;;;12.70
7882;BMP180;3986;41.884;23.466;2022-11-20T18:18:53;91362.00;;;12.80
7882;BMP180;3986;41.884;23.466;2022-11-20T18:21:21;91342.00;;;12.10
7882;BMP180;3986;41.884;23.466;2022-11-20T18:23:48;91345.00;;;12.30
7882;BMP180;3986;41.884;23.466;2022-11-20T18:26:14;91293.00;;;12.30
7882;BMP180;3986;41.884;23.466;2022-11-20T18:28:41;91337.00;;;12.20
7882;BMP180;3986;41.884;23.466;2022-11-20T18:31:08;91332.00;;;12.20
7882;BMP180;3986;41.884;23.466;2022-11-20T18:33:37;91335.00;;;12.50
7882;BMP180;3986;41.884;23.466;2022-11-20T18:36:10;91330.00;;;12.50
7882;BMP180;3986;41.884;23.466;2022-11-20T18:38:39;91346.00;;;12.40
7882;BMP180;3986;41.884;23.466;2022-11-20T18:41:06;91332.00;;;12.40
7882;BMP180;3986;41.884;23.466;2022-11-20T18:43:53;91342.00;;;12.50
7882;BMP180;3986;41.884;23.466;2022-11-20T18:46:37;91332.00;;;11.60
7882;BMP180;3986;41.884;23.466;2022-11-20T18:49:05;91342.00;;;12.20
7882;BMP180;3986;41.884;23.466;2022-11-20T18:51:32;91348.00;;;12.20
7882;BMP180;3986;41.884;23.466;2022-11-20T18:53:59;91343.00;;;12.30
7882;BMP180;3986;41.884;23.466;2022-11-20T18:56:27;91329.00;;;12.60
7882;BMP180;3986;41.884;23.466;2022-11-20T18:58:53;91311.00;;;12.70
7882;BMP180;3986;41.884;23.466;2022-11-20T19:01:20;91292.00;;;12.60
7882;BMP180;3986;41.884;23.466;2022-11-20T19:03:47;91293.00;;;12.60
7882;BMP180;3986;41.884;23.466;2022-11-20T19:06:16;91275.00;;;12.50
7882;BMP180;3986;41.884;23.466;2022-11-20T19:08:43;91276.00;;;12.30
7882;BMP180;3986;41.884;23.466;2022-11-20T19:11:11;91283.00;;;12.40
7882;BMP180;3986;41.884;23.466;2022-11-20T19:13:38;91295.00;;;12.40
7882;BMP180;3986;41.884;23.466;2022-11-20T19:16:07;91291.00;;;12.20
7882;BMP180;3986;41.884;23.466;2022-11-20T19:18:34;91297.00;;;12.30
7882;BMP180;3986;41.884;23.466;2022-11-20T19:21:06;91285.00;;;12.00
7882;BMP180;3986;41.884;23.466;2022-11-20T19:23:34;91298.00;;;12.20
7882;BMP180;3986;41.884;23.466;2022-11-20T19:26:01;91243.00;;;12.10
7882;BMP180;3986;41.884;23.466;2022-11-20T19:28:29;91275.00;;;12.40
7882;BMP180;3986;41.884;23.466;2022-11-20T19:31:01;91273.00;;;12.40
7882;BMP180;3986;41.884;23.466;2022-11-20T19:33:28;91279.00;;;12.40
7882;BMP180;3986;41.884;23.466;2022-11-20T19:35:55;91285.00;;;12.30
7882;BMP180;3986;41.884;23.466;2022-11-20T19:38:23;91290.00;;;12.20
7882;BMP180;3986;41.884;23.466;2022-11-20T19:40:51;91283.00;;;12.20
7882;BMP180;3986;41.884;23.466;2022-11-20T19:43:18;91273.00;;;12.20
7882;BMP180;3986;41.884;23.466;2022-11-20T19:45:44;91274.00;;;12.40
7882;BMP180;3986;41.884;23.466;2022-11-20T19:48:11;91284.00;;;12.40
7882;BMP180;3986;41.884;23.466;2022-11-20T19:50:38;91282.00;;;12.20
7882;BMP180;3986;41.884;23.466;2022-11-20T19:53:05;91283.00;;;12.30
7882;BMP180;3986;41.884;23.466;2022-11-20T19:55:32;91289.00;;;12.50
7882;BMP180;3986;41.884;23.466;2022-11-20T19:58:00;91283.00;;;12.50
7882;BMP180;3986;41.884;23.466;2022-11-20T20:00:27;91285.00;;;12.40
7882;BMP180;3986;41.884;23.466;2022-11-20T20:02:56;91299.00;;;12.40
7882;BMP180;3986;41.884;23.466;2022-11-20T20:05:22;91277.00;;;12.40
7882;BMP180;3986;41.884;23.466;2022-11-20T20:07:49;91272.00;;;12.30
7882;BMP180;3986;41.884;23.466;2022-11-20T20:10:16;91292.00;;;12.20
7882;BMP180;3986;41.884;23.466;2022-11-20T20:12:44;91270.00;;;12.40
7882;BMP180;3986;41.884;23.466;2022-11-20T20:15:12;91281.00;;;12.20
7882;BMP180;3986;41.884;23.466;2022-11-20T20:17:39;91269.00;;;12.20
7882;BMP180;3986;41.884;23.466;2022-11-20T20:20:07;91213.00;;;12.30
7882;BMP180;3986;41.884;23.466;2022-11-20T20:22:34;91237.00;;;12.50
7882;BMP180;3986;41.884;23.466;2022-11-20T20:25:00;91219.00;;;12.40
7882;BMP180;3986;41.884;23.466;2022-11-20T20:27:27;91226.00;;;12.20
7882;BMP180;3986;41.884;23.466;2022-11-20T20:29:55;91252.00;;;12.00
7882;BMP180;3986;41.884;23.466;2022-11-20T20:32:23;91286.00;;;11.90
7882;BMP180;3986;41.884;23.466;2022-11-20T20:34:50;91290.00;;;11.90
7882;BMP180;3986;41.884;23.466;2022-11-20T20:37:17;91285.00;;;12.00
7882;BMP180;3986;41.884;23.466;2022-11-20T20:39:44;91262.00;;;12.20
7882;BMP180;3986;41.884;23.466;2022-11-20T20:42:10;91238.00;;;12.20
7882;BMP180;3986;41.884;23.466;2022-11-20T20:44:37;91243.00;;;12.20
7882;BMP180;3986;41.884;23.466;2022-11-20T20:47:21;91256.00;;;12.20
7882;BMP180;3986;41.884;23.466;2022-11-20T20:49:49;91240.00;;;12.20
7882;BMP180;3986;41.884;23.466;2022-11-20T20:52:16;91236.00;;;11.90
7882;BMP180;3986;41.884;23.466;2022-11-20T20:54:43;91233.00;;;11.50
7882;BMP180;3986;41.884;23.466;2022-11-20T20:57:09;91230.00;;;11.70
7882;BMP180;3986;41.884;23.466;2022-11-20T20:59:37;91220.00;;;12.00
7882;BMP180;3986;41.884;23.466;2022-11-20T21:02:03;91212.00;;;12.10
7882;BMP180;3986;41.884;23.466;2022-11-20T21:04:30;91230.00;;;12.10
7882;BMP180;3986;41.884;23.466;2022-11-20T21:06:59;91244.00;;;12.00
7882;BMP180;3986;41.884;23.466;2022-11-20T21:09:26;91233.00;;;12.00
7882;BMP180;3986;41.884;23.466;2022-11-20T21:11:53;91194.00;;;12.10
7882;BMP180;3986;41.884;23.466;2022-11-20T21:14:20;91179.00;;;11.80
7882;BMP180;3986;41.884;23.466;2022-11-20T21:16:46;91180.00;;;11.80
7882;BMP180;3986;41.884;23.466;2022-11-20T21:19:13;91173.00;;;11.80
7882;BMP180;3986;41.884;23.466;2022-11-20T21:21:40;91169.00;;;11.80
7882;BMP180;3986;41.884;23.466;2022-11-20T21:24:30;91175.00;;;11.90